<?xml version="1.0" encoding="UTF-8" standalone="no" ?>
<gpx xmlns="http://www.topografix.com/GPX/1/1" xmlns:xsi="http://www.w3.org/2001/XMLSchema-instance" xsi:schemaLocation="http://www.topografix.com/GPX/1/1 http://www.topografix.com/GPX/1/1/gpx.xsd" version="1.1" creator="VisuGPX - https://www.visugpx.com">
  <metadata>
    <name>boucles beaumont</name>
    <desc><![CDATA[boucles beaumont du périgord]]></desc>
  </metadata>
  <trk>
    <name><![CDATA[BBmt48]]></name>
    <trkseg>
      <trkpt lat="44.77325" lon="0.7583">
        <ele>80</ele>
        <time>2009-01-15T13:35:28Z</time>
      </trkpt>
      <trkpt lat="44.773" lon="0.75828">
        <ele>85</ele>
        <time>2009-01-15T13:38:11Z</time>
      </trkpt>
      <trkpt lat="44.77278" lon="0.75835">
        <ele>85</ele>
        <time>2009-01-15T13:38:14Z</time>
      </trkpt>
      <trkpt lat="44.77253" lon="0.75843">
        <ele>84</ele>
        <time>2009-01-15T13:38:17Z</time>
      </trkpt>
      <trkpt lat="44.77228" lon="0.7585">
        <ele>85</ele>
        <time>2009-01-15T13:38:20Z</time>
      </trkpt>
      <trkpt lat="44.77208" lon="0.75858">
        <ele>84</ele>
        <time>2009-01-15T13:38:23Z</time>
      </trkpt>
      <trkpt lat="44.7719" lon="0.75845">
        <ele>81</ele>
        <time>2009-01-15T13:38:34Z</time>
      </trkpt>
      <trkpt lat="44.7718" lon="0.75813">
        <ele>82</ele>
        <time>2009-01-15T13:38:38Z</time>
      </trkpt>
      <trkpt lat="44.7717" lon="0.7579">
        <ele>82</ele>
        <time>2009-01-15T13:38:40Z</time>
      </trkpt>
      <trkpt lat="44.77165" lon="0.75765">
        <ele>83</ele>
        <time>2009-01-15T13:38:42Z</time>
      </trkpt>
      <trkpt lat="44.77155" lon="0.75728">
        <ele>85</ele>
        <time>2009-01-15T13:38:45Z</time>
      </trkpt>
      <trkpt lat="44.77145" lon="0.757">
        <ele>89</ele>
        <time>2009-01-15T13:38:48Z</time>
      </trkpt>
      <trkpt lat="44.77138" lon="0.75675">
        <ele>89</ele>
        <time>2009-01-15T13:38:52Z</time>
      </trkpt>
      <trkpt lat="44.7712" lon="0.75685">
        <ele>85</ele>
        <time>2009-01-15T13:39:06Z</time>
      </trkpt>
      <trkpt lat="44.7711" lon="0.75708">
        <ele>87</ele>
        <time>2009-01-15T13:39:10Z</time>
      </trkpt>
      <trkpt lat="44.77098" lon="0.75733">
        <ele>86</ele>
        <time>2009-01-15T13:39:15Z</time>
      </trkpt>
      <trkpt lat="44.77088" lon="0.75758">
        <ele>88</ele>
        <time>2009-01-15T13:39:20Z</time>
      </trkpt>
      <trkpt lat="44.77073" lon="0.7578">
        <ele>93</ele>
        <time>2009-01-15T13:39:25Z</time>
      </trkpt>
      <trkpt lat="44.77053" lon="0.75798">
        <ele>95</ele>
        <time>2009-01-15T13:39:30Z</time>
      </trkpt>
      <trkpt lat="44.77038" lon="0.75813">
        <ele>95</ele>
        <time>2009-01-15T13:39:34Z</time>
      </trkpt>
      <trkpt lat="44.7702" lon="0.75823">
        <ele>95</ele>
        <time>2009-01-15T13:39:38Z</time>
      </trkpt>
      <trkpt lat="44.77003" lon="0.7583">
        <ele>93</ele>
        <time>2009-01-15T13:39:41Z</time>
      </trkpt>
      <trkpt lat="44.76985" lon="0.7584">
        <ele>90</ele>
        <time>2009-01-15T13:39:44Z</time>
      </trkpt>
      <trkpt lat="44.76968" lon="0.75855">
        <ele>91</ele>
        <time>2009-01-15T13:39:48Z</time>
      </trkpt>
      <trkpt lat="44.7695" lon="0.75865">
        <ele>91</ele>
        <time>2009-01-15T13:39:56Z</time>
      </trkpt>
      <trkpt lat="44.76933" lon="0.75875">
        <ele>89</ele>
        <time>2009-01-15T13:40:01Z</time>
      </trkpt>
    </trkseg>
  </trk>
</gpx>